createdAt,value
2022-08-24T00:02:06.955Z,100213.53
2022-08-24T00:04:34.813Z,100216.22
2022-08-24T00:07:02.822Z,100208.22
2022-08-24T00:09:33.149Z,100218.84
2022-08-24T00:12:00.353Z,100217.16
2022-08-24T00:14:27.217Z,100218.88
2022-08-24T00:16:54.245Z,100219.78
2022-08-24T00:19:20.890Z,100217.16
2022-08-24T00:21:47.387Z,100221.63
2022-08-24T00:24:14.706Z,100225.16
2022-08-24T00:26:41.385Z,100210.97
2022-08-24T00:29:07.979Z,100212.69
2022-08-24T00:31:34.597Z,100211.81
2022-08-24T00:34:01.296Z,100217.09
2022-08-24T00:36:28.369Z,100216.22
2022-08-24T00:38:54.884Z,100199.34
2022-08-24T00:41:22.563Z,100200.19
2022-08-24T00:44:01.605Z,100191.28
2022-08-24T00:46:31.088Z,100186.81
2022-08-24T00:49:11.624Z,100194.81
2022-08-24T00:51:47.675Z,100188.69
2022-08-24T00:54:18.728Z,100191.34
2022-08-24T00:56:56.674Z,100194.81
2022-08-24T00:59:34.258Z,100192.16
2022-08-24T01:02:14.314Z,100193.97
2022-08-24T01:04:53.537Z,100192.16
2022-08-24T01:07:23.121Z,100186.84
2022-08-24T01:09:52.163Z,100183.28
2022-08-24T01:12:19.545Z,100185.13
2022-08-24T01:14:46.393Z,100186.84
2022-08-24T01:17:34.042Z,100186.00
2022-08-24T01:20:06.739Z,100185.13
2022-08-24T01:22:51.517Z,100186.06
2022-08-24T01:25:18.622Z,100179.84
2022-08-24T01:27:45.367Z,100180.78
2022-08-24T01:30:15.631Z,100183.44
2022-08-24T01:32:53.512Z,100175.44
2022-08-24T01:35:20.223Z,100171.84
2022-08-24T01:37:46.915Z,100165.66
2022-08-24T01:40:13.983Z,100174.50
2022-08-24T01:42:40.674Z,100176.31
2022-08-24T01:45:07.771Z,100176.25
2022-08-24T01:47:34.259Z,100168.25
2022-08-24T01:50:02.315Z,100172.72
2022-08-24T01:52:43.414Z,100179.78
2022-08-24T01:55:19.020Z,100183.34
2022-08-24T01:57:48.744Z,100182.41
2022-08-24T02:00:15.855Z,100185.97
2022-08-24T02:02:44.247Z,100177.00
2022-08-24T02:05:13.699Z,100182.34
2022-08-24T02:07:40.306Z,100191.25
2022-08-24T02:10:11.660Z,100201.91
2022-08-24T02:12:40.682Z,100197.38
2022-08-24T02:15:09.415Z,100203.59
2022-08-24T02:17:36.873Z,100202.66
2022-08-24T02:20:06.136Z,100216.91
2022-08-24T02:22:32.726Z,100219.56
2022-08-24T02:24:59.240Z,100220.41
2022-08-24T02:27:25.748Z,100218.69
2022-08-24T02:29:52.756Z,100225.75
2022-08-24T02:32:19.259Z,100226.69
2022-08-24T02:34:45.781Z,100230.19
2022-08-24T02:37:12.290Z,100231.03
2022-08-24T02:39:38.934Z,100226.63
2022-08-24T02:42:05.673Z,100231.03
2022-08-24T02:44:32.168Z,100229.25
2022-08-24T02:46:59.694Z,100234.59
2022-08-24T02:49:26.308Z,100233.72
2022-08-24T02:51:52.801Z,100227.53
2022-08-24T02:54:19.557Z,100228.38
2022-08-24T02:56:46.674Z,100234.59
2022-08-24T02:59:13.967Z,100231.03
2022-08-24T03:01:40.568Z,100223.91
2022-08-24T03:04:07.425Z,100226.53
2022-08-24T03:06:34.117Z,100222.94
2022-08-24T03:09:00.697Z,100228.28
2022-08-24T03:11:28.484Z,100219.34
2022-08-24T03:13:59.244Z,100220.25
2022-08-24T03:16:28.184Z,100227.38
2022-08-24T03:18:54.755Z,100229.22
2022-08-24T03:21:21.526Z,100238.06
2022-08-24T03:23:49.222Z,100238.13
2022-08-24T03:26:15.871Z,100244.38
2022-08-24T03:28:44.655Z,100239.97
2022-08-24T03:31:12.537Z,100245.31
2022-08-24T03:33:39.156Z,100248.00
2022-08-24T03:36:06.218Z,100248.00
2022-08-24T03:38:32.809Z,100252.44
2022-08-24T03:40:59.505Z,100254.31
2022-08-24T03:43:44.415Z,100258.88
2022-08-24T03:46:12.063Z,100260.72
2022-08-24T03:48:40.539Z,100268.75
2022-08-24T03:51:10.682Z,100268.75
2022-08-24T03:53:37.587Z,100260.69
2022-08-24T03:56:10.646Z,100267.81
2022-08-24T03:58:38.820Z,100263.41
2022-08-24T04:01:06.346Z,100259.81
2022-08-24T04:03:43.460Z,100264.34
2022-08-24T04:06:11.824Z,100269.69
2022-08-24T04:08:39.642Z,100267.84
2022-08-24T04:11:09.424Z,100273.25
2022-08-24T04:13:36.112Z,100275.06
2022-08-24T04:16:10.528Z,100275.00
2022-08-24T04:18:37.230Z,100266.03
2022-08-24T04:21:04.890Z,100265.03
2022-08-24T04:23:46.779Z,100277.41
2022-08-24T04:26:14.465Z,100273.81
2022-08-24T04:28:41.200Z,100274.69
2022-08-24T04:31:07.995Z,100276.41
2022-08-24T04:33:35.039Z,100283.56
2022-08-24T04:36:02.522Z,100277.31
2022-08-24T04:38:30.011Z,100275.50
2022-08-24T04:40:56.578Z,100271.91
2022-08-24T04:43:26.930Z,100277.16
2022-08-24T04:45:53.510Z,100285.91
2022-08-24T04:48:20.037Z,100283.19
2022-08-24T04:50:46.627Z,100287.56
2022-08-24T04:53:14.295Z,100299.06
2022-08-24T04:55:47.339Z,100286.41
2022-08-24T04:58:15.385Z,100293.44
2022-08-24T05:00:42.322Z,100289.78
2022-08-24T05:03:08.987Z,100280.78
2022-08-24T05:05:35.523Z,100289.53
2022-08-24T05:08:02.670Z,100281.28
2022-08-24T05:10:33.726Z,100281.19
2022-08-24T05:13:00.553Z,100289.03
2022-08-24T05:15:27.175Z,100287.88
2022-08-24T05:17:53.731Z,100287.72
2022-08-24T05:20:20.335Z,100292.94
2022-08-24T05:22:46.946Z,100293.63
2022-08-24T05:25:13.713Z,100282.06
2022-08-24T05:27:40.286Z,100285.41
2022-08-24T05:30:07.280Z,100277.34
2022-08-24T05:32:33.839Z,100277.88
2022-08-24T05:35:01.681Z,100278.81
2022-08-24T05:37:28.272Z,100275.56
2022-08-24T05:39:54.782Z,100274.44
2022-08-24T05:42:21.525Z,100274.91
2022-08-24T05:44:48.105Z,100286.41
2022-08-24T05:47:14.607Z,100276.13
2022-08-24T05:49:41.832Z,100291.69
2022-08-24T05:52:08.876Z,100286.97
2022-08-24T05:54:35.416Z,100279.81
2022-08-24T05:57:05.098Z,100283.38
2022-08-24T05:59:32.133Z,100287.97
2022-08-24T06:01:58.786Z,100296.19
2022-08-24T06:04:26.429Z,100285.97
2022-08-24T06:06:53.141Z,100286.16
2022-08-24T06:09:19.682Z,100286.09
2022-08-24T06:11:47.574Z,100296.41
2022-08-24T06:14:17.547Z,100293.69
2022-08-24T06:16:46.740Z,100298.66
2022-08-24T06:19:16.152Z,100302.88
2022-08-24T06:21:43.671Z,100302.41
2022-08-24T06:24:10.171Z,100311.28
2022-08-24T06:26:55.384Z,100305.84
2022-08-24T06:29:22.272Z,100306.84
2022-08-24T06:31:52.147Z,100311.63
2022-08-24T06:34:26.098Z,100312.34
2022-08-24T06:36:52.892Z,100317.88
2022-08-24T06:39:20.518Z,100314.75
2022-08-24T06:41:47.042Z,100319.31
2022-08-24T06:44:13.682Z,100316.78
2022-08-24T06:46:40.609Z,100311.59
2022-08-24T06:49:08.014Z,100317.50
2022-08-24T06:51:34.649Z,100316.03
2022-08-24T06:54:01.246Z,100322.06
2022-08-24T06:56:28.158Z,100330.31
2022-08-24T06:58:55.132Z,100317.53
2022-08-24T07:01:25.670Z,100322.56
2022-08-24T07:03:53.049Z,100325.53
2022-08-24T07:06:20.420Z,100322.19
2022-08-24T07:08:47.197Z,100320.19
2022-08-24T07:11:15.957Z,100320.38
2022-08-24T07:13:42.603Z,100313.63
2022-08-24T07:16:12.082Z,100316.66
2022-08-24T07:18:38.654Z,100301.44
2022-08-24T07:21:07.879Z,100299.53
2022-08-24T07:23:41.841Z,100312.22
2022-08-24T07:26:17.177Z,100305.53
2022-08-24T07:28:49.195Z,100308.53
2022-08-24T07:31:15.887Z,100310.81
2022-08-24T07:33:42.728Z,100310.97
2022-08-24T07:36:09.395Z,100311.91
2022-08-24T07:38:36.096Z,100306.69
2022-08-24T07:41:26.583Z,100313.44
2022-08-24T07:43:50.403Z,100307.22
2022-08-24T07:46:17.031Z,100309.13
2022-08-24T07:48:43.797Z,100308.03
2022-08-24T07:51:12.731Z,100316.56
2022-08-24T07:53:53.019Z,100322.53
2022-08-24T07:56:20.589Z,100327.59
2022-08-24T07:58:47.549Z,100332.34
2022-08-24T08:01:14.380Z,100337.88
2022-08-24T08:03:41.676Z,100338.06
2022-08-24T08:06:16.236Z,100335.81
2022-08-24T08:08:43.554Z,100338.63
2022-08-24T08:11:11.053Z,100344.63
2022-08-24T08:16:08.501Z,100345.22
2022-08-24T08:18:36.053Z,100346.13
2022-08-24T08:21:04.823Z,100347.91
2022-08-24T08:23:50.507Z,100357.53
2022-08-24T08:26:20.532Z,100358.38
2022-08-24T08:28:47.133Z,100352.94
2022-08-24T08:31:13.945Z,100357.81
2022-08-24T08:33:40.585Z,100363.69
2022-08-24T08:36:12.697Z,100358.75
2022-08-24T08:38:40.213Z,100362.09
2022-08-24T08:41:17.789Z,100361.84
2022-08-24T08:44:03.102Z,100358.00
2022-08-24T08:46:54.795Z,100369.47
2022-08-24T08:49:46.097Z,100369.91
2022-08-24T08:52:24.800Z,100375.81
2022-08-24T08:55:03.873Z,100384.72
2022-08-24T08:58:09.580Z,100391.00
2022-08-24T09:01:08.630Z,100397.75
2022-08-24T09:03:57.151Z,100391.28
2022-08-24T09:06:41.857Z,100395.22
2022-08-24T09:13:05.673Z,100395.28
2022-08-24T09:15:46.934Z,100394.06
2022-08-24T09:18:35.880Z,100390.03
2022-08-24T09:21:14.711Z,100403.28
2022-08-24T09:23:56.806Z,100403.88
2022-08-24T09:26:49.531Z,100403.72
2022-08-24T09:29:30.379Z,100402.25
2022-08-24T09:32:34.343Z,100402.69
2022-08-24T09:35:14.217Z,100405.50
2022-08-24T09:38:29.115Z,100405.94
2022-08-24T09:41:42.171Z,100394.16
2022-08-24T09:44:30.585Z,100397.09
2022-08-24T09:47:18.537Z,100398.16
2022-08-24T09:50:16.366Z,100400.59
2022-08-24T09:53:10.503Z,100403.47
2022-08-24T09:55:43.027Z,100410.28
2022-08-24T09:58:27.790Z,100416.16
2022-08-24T10:01:07.140Z,100415.72
2022-08-24T10:04:11.470Z,100412.63
2022-08-24T10:07:14.810Z,100413.84
2022-08-24T10:09:53.173Z,100411.16
2022-08-24T10:12:41.151Z,100406.94
2022-08-24T10:15:15.737Z,100411.75
2022-08-24T10:18:05.777Z,100412.28
2022-08-24T10:21:00.199Z,100417.78
2022-08-24T10:23:58.728Z,100413.38
2022-08-24T10:26:53.851Z,100411.50
2022-08-24T10:29:47.614Z,100416.38
2022-08-24T10:32:49.172Z,100410.25
2022-08-24T10:35:47.785Z,100410.97
2022-08-24T10:38:48.209Z,100412.75
2022-08-24T10:41:45.766Z,100423.88
2022-08-24T10:44:40.760Z,100420.31
2022-08-24T10:47:19.733Z,100418.59
2022-08-24T10:50:04.699Z,100413.22
2022-08-24T10:52:46.885Z,100414.78
2022-08-24T10:55:24.793Z,100421.56
2022-08-24T10:58:12.797Z,100432.25
2022-08-24T11:00:40.023Z,100419.31
2022-08-24T11:03:17.238Z,100428.81
2022-08-24T11:05:55.327Z,100418.28
2022-08-24T11:08:30.027Z,100410.88
2022-08-24T11:11:40.693Z,100410.00
2022-08-24T11:14:24.016Z,100415.00
2022-08-24T11:16:55.742Z,100418.16
2022-08-24T11:19:26.871Z,100416.91
2022-08-24T11:21:55.705Z,100422.63
2022-08-24T11:24:39.313Z,100413.56
2022-08-24T11:27:23.077Z,100414.25
2022-08-24T11:29:49.517Z,100423.22
2022-08-24T11:32:29.643Z,100427.75
2022-08-24T11:35:02.077Z,100426.31
2022-08-24T11:37:37.379Z,100430.88
2022-08-24T11:40:07.465Z,100437.75
2022-08-24T11:42:39.798Z,100438.78
2022-08-24T11:45:25.175Z,100430.34
2022-08-24T11:47:54.231Z,100432.34
2022-08-24T11:50:34.957Z,100439.22
2022-08-24T11:53:16.635Z,100442.16
2022-08-24T11:56:00.117Z,100434.19
2022-08-24T11:58:45.081Z,100438.50
2022-08-24T12:01:23.323Z,100435.75
2022-08-24T12:03:55.154Z,100424.59
2022-08-24T12:06:35.277Z,100435.63
2022-08-24T12:09:26.173Z,100435.38
2022-08-24T12:12:24.437Z,100434.50
2022-08-24T12:15:07.679Z,100446.38
2022-08-24T12:17:40.074Z,100451.13
2022-08-24T12:20:28.591Z,100446.31
2022-08-24T12:23:02.501Z,100440.72
2022-08-24T12:25:51.026Z,100441.66
2022-08-24T12:28:41.139Z,100445.84
2022-08-24T12:31:38.643Z,100441.63
2022-08-24T12:34:13.182Z,100446.56
2022-08-24T12:37:16.443Z,100441.66
2022-08-24T12:39:49.745Z,100441.03
2022-08-24T12:42:22.411Z,100446.25
2022-08-24T12:45:09.119Z,100452.19
2022-08-24T12:47:52.520Z,100442.16
2022-08-24T12:50:58.005Z,100446.59
2022-08-24T12:53:57.428Z,100445.47
2022-08-24T12:56:27.034Z,100439.41
2022-08-24T12:59:15.342Z,100441.84
2022-08-24T13:01:56.691Z,100443.78
2022-08-24T13:04:45.922Z,100442.69
2022-08-24T13:07:30.343Z,100445.84
2022-08-24T13:09:56.807Z,100434.69
2022-08-24T13:12:33.048Z,100440.38
2022-08-24T13:15:17.812Z,100443.78
2022-08-24T13:17:44.351Z,100441.91
2022-08-24T13:20:23.496Z,100433.00
2022-08-24T13:23:11.508Z,100435.69
2022-08-24T13:25:51.698Z,100440.75
2022-08-24T13:28:24.825Z,100444.19
2022-08-24T13:31:09.991Z,100445.69
2022-08-24T13:34:13.477Z,100439.31
2022-08-24T13:36:56.052Z,100437.53
2022-08-24T13:40:19.845Z,100439.88
2022-08-24T13:43:20.154Z,100436.38
2022-08-24T13:45:57.104Z,100429.81
2022-08-24T13:48:46.643Z,100429.50
2022-08-24T13:51:38.103Z,100426.66
2022-08-24T13:54:18.845Z,100430.22
2022-08-24T13:57:25.525Z,100437.81
2022-08-24T14:00:12.783Z,100430.84
2022-08-24T14:03:09.989Z,100432.09
2022-08-24T14:05:46.310Z,100429.72
2022-08-24T14:08:31.386Z,100422.75
2022-08-24T14:11:03.519Z,100422.91
2022-08-24T14:13:54.245Z,100427.34
2022-08-24T14:17:25.367Z,100421.09
2022-08-24T14:20:22.089Z,100423.47
2022-08-24T14:23:17.390Z,100406.84
2022-08-24T14:25:44.736Z,100419.94
2022-08-24T14:28:29.645Z,100419.38
2022-08-24T14:31:21.447Z,100412.44
2022-08-24T14:34:00.201Z,100414.22
2022-08-24T14:36:48.260Z,100415.06
2022-08-24T14:39:29.130Z,100408.41
2022-08-24T14:42:16.201Z,100406.28
2022-08-24T14:44:49.694Z,100393.38
2022-08-24T14:47:24.353Z,100398.50
2022-08-24T14:50:42.891Z,100391.47
2022-08-24T14:53:44.036Z,100387.91
2022-08-24T14:56:35.528Z,100392.06
2022-08-24T14:59:42.647Z,100390.00
2022-08-24T15:02:28.268Z,100381.56
2022-08-24T15:05:16.534Z,100391.53
2022-08-24T15:07:54.519Z,100391.13
2022-08-24T15:10:26.417Z,100387.06
2022-08-24T15:13:03.949Z,100389.16
2022-08-24T15:15:46.002Z,100385.97
2022-08-24T15:18:19.072Z,100379.13
2022-08-24T15:21:00.658Z,100383.88
2022-08-24T15:23:57.938Z,100382.31
2022-08-24T15:26:58.781Z,100391.16
2022-08-24T15:29:30.419Z,100374.06
2022-08-24T15:32:01.786Z,100383.63
2022-08-24T15:34:48.179Z,100379.75
2022-08-24T15:37:27.935Z,100377.19
2022-08-24T15:39:54.884Z,100376.59
2022-08-24T15:42:21.616Z,100374.22
2022-08-24T15:44:50.497Z,100375.44
2022-08-24T15:47:31.161Z,100368.03
2022-08-24T15:50:32.629Z,100375.38
2022-08-24T15:53:06.775Z,100369.19
2022-08-24T15:55:46.595Z,100371.50
2022-08-24T15:58:25.073Z,100373.75
2022-08-24T16:01:10.390Z,100379.69
2022-08-24T16:03:57.054Z,100371.13
2022-08-24T16:06:32.449Z,100377.19
2022-08-24T16:09:05.105Z,100376.44
2022-08-24T16:11:39.921Z,100381.69
2022-08-24T16:14:24.643Z,100387.41
2022-08-24T16:16:53.614Z,100396.19
2022-08-24T16:19:30.129Z,100394.16
2022-08-24T16:22:01.022Z,100393.53
2022-08-24T16:24:37.364Z,100389.81
2022-08-24T16:27:14.878Z,100390.50
2022-08-24T16:29:45.573Z,100391.88
2022-08-24T16:32:21.898Z,100384.31
2022-08-24T16:35:01.736Z,100379.94
2022-08-24T16:37:28.247Z,100381.50
2022-08-24T16:39:55.226Z,100384.13
2022-08-24T16:42:25.318Z,100381.28
2022-08-24T16:44:52.256Z,100384.38
2022-08-24T16:47:20.009Z,100388.84
2022-08-24T16:49:47.921Z,100378.56
2022-08-24T16:52:14.933Z,100383.59
2022-08-24T16:54:42.388Z,100384.09
2022-08-24T16:57:19.226Z,100381.06
2022-08-24T16:59:48.297Z,100387.66
2022-08-24T17:02:16.804Z,100392.91
2022-08-24T17:04:43.454Z,100394.75
2022-08-24T17:07:13.523Z,100392.16
2022-08-24T17:09:43.009Z,100397.81
2022-08-24T17:12:09.602Z,100398.94
2022-08-24T17:14:38.665Z,100395.47
2022-08-24T17:17:11.778Z,100401.25
2022-08-24T17:19:39.499Z,100405.13
2022-08-24T17:22:15.571Z,100405.63
2022-08-24T17:24:42.725Z,100402.84
2022-08-24T17:27:09.571Z,100407.75
2022-08-24T17:29:36.107Z,100410.75
2022-08-24T17:32:03.035Z,100415.97
2022-08-24T17:34:29.651Z,100416.22
2022-08-24T17:36:56.906Z,100417.47
2022-08-24T17:39:26.420Z,100417.16
2022-08-24T17:41:55.234Z,100409.72
2022-08-24T17:44:25.937Z,100404.94
2022-08-24T17:46:57.935Z,100407.31
2022-08-24T17:49:26.079Z,100412.78
2022-08-24T17:51:56.034Z,100415.16
2022-08-24T17:54:22.981Z,100410.28
2022-08-24T17:56:50.926Z,100417.78
2022-08-24T17:59:25.944Z,100410.38
2022-08-24T18:01:54.880Z,100403.84
2022-08-24T18:04:25.714Z,100407.00
2022-08-24T18:06:52.506Z,100401.31
2022-08-24T18:09:26.541Z,100406.28
2022-08-24T18:11:53.087Z,100413.28
2022-08-24T18:14:19.670Z,100417.31
2022-08-24T18:16:50.127Z,100413.31
2022-08-24T18:19:21.992Z,100412.69
2022-08-24T18:21:51.463Z,100419.28
2022-08-24T18:24:18.104Z,100422.22
2022-08-24T18:26:47.734Z,100415.06
2022-08-24T18:29:21.493Z,100419.28
2022-08-24T18:31:48.727Z,100427.16
2022-08-24T18:34:21.091Z,100426.03
2022-08-24T18:36:48.662Z,100421.31
2022-08-24T18:39:15.384Z,100425.44
2022-08-24T18:41:44.229Z,100433.78
2022-08-24T18:44:20.047Z,100427.88
2022-08-24T18:46:47.863Z,100428.13
2022-08-24T18:49:15.845Z,100425.66
2022-08-24T18:51:43.510Z,100425.78
2022-08-24T18:54:15.651Z,100429.41
2022-08-24T18:56:43.404Z,100433.03
2022-08-24T18:59:13.914Z,100437.59
2022-08-24T19:02:00.673Z,100426.91
2022-08-24T19:04:32.186Z,100426.00
2022-08-24T19:07:00.189Z,100412.78
2022-08-24T19:09:29.704Z,100424.38
2022-08-24T19:12:00.339Z,100424.66
2022-08-24T19:14:26.902Z,100420.28
2022-08-24T19:16:53.407Z,100416.03
2022-08-24T19:19:22.213Z,100420.72
2022-08-24T19:21:49.322Z,100420.81
2022-08-24T19:24:21.146Z,100427.22
2022-08-24T19:26:47.690Z,100424.63
2022-08-24T19:29:21.413Z,100419.47
2022-08-24T19:32:00.351Z,100417.88
2022-08-24T19:34:29.601Z,100414.41
2022-08-24T19:36:56.628Z,100426.16
2022-08-24T19:39:31.573Z,100414.72
2022-08-24T19:41:58.532Z,100412.91
2022-08-24T19:44:47.804Z,100415.69
2022-08-24T19:47:18.442Z,100411.22
2022-08-24T19:49:45.688Z,100417.50
2022-08-24T19:52:14.102Z,100409.44
2022-08-24T19:54:44.539Z,100412.00
2022-08-24T19:57:34.850Z,100420.03
2022-08-24T20:00:24.690Z,100415.59
2022-08-24T20:02:53.561Z,100414.78
2022-08-24T20:05:22.723Z,100413.97
2022-08-24T20:07:50.173Z,100423.81
2022-08-24T20:10:19.701Z,100422.91
2022-08-24T20:12:46.326Z,100430.22
2022-08-24T20:15:12.947Z,100432.94
2022-08-24T20:17:39.596Z,100425.97
2022-08-24T20:20:07.748Z,100432.28
2022-08-24T20:22:34.988Z,100438.63
2022-08-24T20:25:01.831Z,100432.00
2022-08-24T20:27:28.917Z,100440.22
2022-08-24T20:29:56.011Z,100441.22
2022-08-24T20:32:22.904Z,100434.03
2022-08-24T20:34:49.865Z,100439.16
2022-08-24T20:37:23.147Z,100435.56
2022-08-24T20:39:50.134Z,100441.78
2022-08-24T20:42:21.112Z,100434.81
2022-08-24T20:44:49.507Z,100436.50
2022-08-24T20:47:16.926Z,100430.28
2022-08-24T20:49:43.505Z,100436.59
2022-08-24T20:52:10.090Z,100433.16
2022-08-24T20:54:39.653Z,100436.66
2022-08-24T20:57:08.446Z,100425.53
2022-08-24T20:59:35.437Z,100432.75
2022-08-24T21:02:03.225Z,100424.75
2022-08-24T21:04:30.073Z,100419.50
2022-08-24T21:06:57.173Z,100417.31
2022-08-24T21:09:24.191Z,100418.09
2022-08-24T21:11:50.755Z,100423.50
2022-08-24T21:14:17.800Z,100419.16
2022-08-24T21:16:45.813Z,100421.72
2022-08-24T21:19:17.354Z,100424.31
2022-08-24T21:21:46.784Z,100411.13
2022-08-24T21:24:13.869Z,100404.94
2022-08-24T21:26:40.655Z,100401.75
2022-08-24T21:29:08.739Z,100395.53
2022-08-24T21:31:36.980Z,100397.50
2022-08-24T21:34:22.920Z,100393.59
2022-08-24T21:36:52.457Z,100395.88
2022-08-24T21:39:19.453Z,100387.22
2022-08-24T21:41:46.083Z,100389.09
2022-08-24T21:44:12.722Z,100390.09
2022-08-24T21:46:39.649Z,100391.16
2022-08-24T21:49:06.955Z,100394.91
2022-08-24T21:51:38.484Z,100382.63
2022-08-24T21:54:05.003Z,100382.69
2022-08-24T21:56:32.750Z,100383.66
2022-08-24T21:58:59.444Z,100378.41
2022-08-24T22:01:26.810Z,100372.28
2022-08-24T22:03:53.351Z,100376.84
2022-08-24T22:06:19.948Z,100368.06
